sensor_id;sensor_type;location;lat;lon;timestamp;P1;durP1;ratioP1;P2;durP2;ratioP2
60610;SDS011;46439;51.164;13.572;2023-06-22T00:00:31;8.30;;;5.80;;
60610;SDS011;46439;51.164;13.572;2023-06-22T00:03:00;7.80;;;5.70;;
60610;SDS011;46439;51.164;13.572;2023-06-22T00:05:29;7.00;;;5.80;;
60610;SDS011;46439;51.164;13.572;2023-06-22T00:07:57;7.50;;;5.60;;
60610;SDS011;46439;51.164;13.572;2023-06-22T00:10:28;7.80;;;5.50;;
60610;SDS011;46439;51.164;13.572;2023-06-22T00:12:57;7.20;;;5.70;;
60610;SDS011;46439;51.164;13.572;2023-06-22T00:15:25;6.00;;;5.40;;
60610;SDS011;46439;51.164;13.572;2023-06-22T00:17:55;8.20;;;5.80;;
60610;SDS011;46439;51.164;13.572;2023-06-22T00:20:25;8.40;;;5.50;;
60610;SDS011;46439;51.164;13.572;2023-06-22T00:22:54;7.60;;;5.60;;
60610;SDS011;46439;51.164;13.572;2023-06-22T00:25:24;6.60;;;5.80;;
60610;SDS011;46439;51.164;13.572;2023-06-22T00:27:52;8.90;;;6.00;;
60610;SDS011;46439;51.164;13.572;2023-06-22T00:30:21;6.70;;;5.70;;
60610;SDS011;46439;51.164;13.572;2023-06-22T00:32:49;7.80;;;5.80;;
60610;SDS011;46439;51.164;13.572;2023-06-22T00:35:18;7.20;;;5.90;;
60610;SDS011;46439;51.164;13.572;2023-06-22T00:37:47;6.80;;;5.30;;
60610;SDS011;46439;51.164;13.572;2023-06-22T00:40:15;7.40;;;6.00;;
60610;SDS011;46439;51.164;13.572;2023-06-22T00:42:48;6.30;;;5.70;;
60610;SDS011;46439;51.164;13.572;2023-06-22T00:45:17;7.00;;;6.00;;
60610;SDS011;46439;51.164;13.572;2023-06-22T00:47:45;6.50;;;5.80;;
60610;SDS011;46439;51.164;13.572;2023-06-22T00:50:16;7.40;;;5.90;;
60610;SDS011;46439;51.164;13.572;2023-06-22T00:52:48;6.30;;;5.70;;
60610;SDS011;46439;51.164;13.572;2023-06-22T00:55:20;6.40;;;5.50;;
60610;SDS011;46439;51.164;13.572;2023-06-22T00:57:49;6.70;;;5.90;;
60610;SDS011;46439;51.164;13.572;2023-06-22T01:00:22;7.30;;;5.90;;
60610;SDS011;46439;51.164;13.572;2023-06-22T01:02:51;7.80;;;5.90;;
60610;SDS011;46439;51.164;13.572;2023-06-22T01:05:20;6.80;;;5.70;;
60610;SDS011;46439;51.164;13.572;2023-06-22T01:07:59;7.10;;;5.70;;
60610;SDS011;46439;51.164;13.572;2023-06-22T01:10:36;8.80;;;6.20;;
60610;SDS011;46439;51.164;13.572;2023-06-22T01:13:12;6.90;;;5.70;;
60610;SDS011;46439;51.164;13.572;2023-06-22T01:15:49;8.10;;;5.90;;
60610;SDS011;46439;51.164;13.572;2023-06-22T01:18:23;9.80;;;6.00;;
60610;SDS011;46439;51.164;13.572;2023-06-22T01:20:55;6.90;;;5.90;;
60610;SDS011;46439;51.164;13.572;2023-06-22T01:23:28;8.70;;;6.10;;
60610;SDS011;46439;51.164;13.572;2023-06-22T01:26:06;8.40;;;6.20;;
60610;SDS011;46439;51.164;13.572;2023-06-22T01:28:44;7.90;;;6.20;;
60610;SDS011;46439;51.164;13.572;2023-06-22T01:31:16;8.60;;;6.40;;
60610;SDS011;46439;51.164;13.572;2023-06-22T01:33:46;8.30;;;6.30;;
60610;SDS011;46439;51.164;13.572;2023-06-22T01:36:18;9.80;;;6.30;;
60610;SDS011;46439;51.164;13.572;2023-06-22T01:38:47;8.00;;;6.20;;
60610;SDS011;46439;51.164;13.572;2023-06-22T01:41:17;7.60;;;6.00;;
60610;SDS011;46439;51.164;13.572;2023-06-22T01:43:46;7.10;;;5.80;;
60610;SDS011;46439;51.164;13.572;2023-06-22T01:46:16;6.90;;;5.90;;
60610;SDS011;46439;51.164;13.572;2023-06-22T01:48:46;7.10;;;6.10;;
60610;SDS011;46439;51.164;13.572;2023-06-22T01:51:17;8.50;;;6.50;;
60610;SDS011;46439;51.164;13.572;2023-06-22T01:53:45;8.40;;;6.40;;
60610;SDS011;46439;51.164;13.572;2023-06-22T01:56:14;9.60;;;6.50;;
60610;SDS011;46439;51.164;13.572;2023-06-22T01:58:46;8.10;;;6.30;;
60610;SDS011;46439;51.164;13.572;2023-06-22T02:01:20;9.00;;;6.60;;
60610;SDS011;46439;51.164;13.572;2023-06-22T02:03:52;8.20;;;5.90;;
60610;SDS011;46439;51.164;13.572;2023-06-22T02:06:25;10.00;;;6.60;;
60610;SDS011;46439;51.164;13.572;2023-06-22T02:09:02;8.40;;;6.90;;
60610;SDS011;46439;51.164;13.572;2023-06-22T02:11:35;10.20;;;6.60;;
60610;SDS011;46439;51.164;13.572;2023-06-22T02:14:06;6.70;;;5.90;;
60610;SDS011;46439;51.164;13.572;2023-06-22T02:16:36;10.10;;;6.40;;
60610;SDS011;46439;51.164;13.572;2023-06-22T02:19:05;8.00;;;6.80;;
60610;SDS011;46439;51.164;13.572;2023-06-22T02:21:34;10.60;;;6.10;;
60610;SDS011;46439;51.164;13.572;2023-06-22T02:24:04;8.60;;;6.40;;
60610;SDS011;46439;51.164;13.572;2023-06-22T02:26:32;7.20;;;6.50;;
60610;SDS011;46439;51.164;13.572;2023-06-22T02:29:03;8.20;;;6.80;;
60610;SDS011;46439;51.164;13.572;2023-06-22T02:31:31;8.20;;;6.60;;
60610;SDS011;46439;51.164;13.572;2023-06-22T02:34:00;8.00;;;6.60;;
60610;SDS011;46439;51.164;13.572;2023-06-22T02:36:28;8.10;;;6.30;;
60610;SDS011;46439;51.164;13.572;2023-06-22T02:38:57;7.60;;;6.70;;
60610;SDS011;46439;51.164;13.572;2023-06-22T02:41:27;7.50;;;6.50;;
60610;SDS011;46439;51.164;13.572;2023-06-22T02:43:56;10.30;;;7.10;;
60610;SDS011;46439;51.164;13.572;2023-06-22T02:46:25;8.10;;;7.20;;
60610;SDS011;46439;51.164;13.572;2023-06-22T02:48:53;7.60;;;6.50;;
60610;SDS011;46439;51.164;13.572;2023-06-22T02:51:22;8.40;;;6.70;;
60610;SDS011;46439;51.164;13.572;2023-06-22T02:53:50;8.60;;;6.70;;
60610;SDS011;46439;51.164;13.572;2023-06-22T02:56:24;6.40;;;6.90;;
60610;SDS011;46439;51.164;13.572;2023-06-22T02:58:52;7.80;;;7.00;;
60610;SDS011;46439;51.164;13.572;2023-06-22T03:01:21;11.20;;;7.30;;
60610;SDS011;46439;51.164;13.572;2023-06-22T03:03:50;9.20;;;7.00;;
60610;SDS011;46439;51.164;13.572;2023-06-22T03:06:19;7.70;;;6.60;;
60610;SDS011;46439;51.164;13.572;2023-06-22T03:08:58;9.70;;;7.30;;
60610;SDS011;46439;51.164;13.572;2023-06-22T03:11:28;8.30;;;6.90;;
60610;SDS011;46439;51.164;13.572;2023-06-22T03:13:56;8.10;;;6.90;;
60610;SDS011;46439;51.164;13.572;2023-06-22T03:16:25;7.90;;;7.00;;
60610;SDS011;46439;51.164;13.572;2023-06-22T03:18:53;10.30;;;7.70;;
60610;SDS011;46439;51.164;13.572;2023-06-22T03:21:22;10.00;;;7.10;;
60610;SDS011;46439;51.164;13.572;2023-06-22T03:26:21;9.20;;;7.00;;
60610;SDS011;46439;51.164;13.572;2023-06-22T03:28:53;9.70;;;7.50;;
60610;SDS011;46439;51.164;13.572;2023-06-22T03:31:22;9.70;;;7.60;;
60610;SDS011;46439;51.164;13.572;2023-06-22T03:33:51;9.30;;;6.90;;
60610;SDS011;46439;51.164;13.572;2023-06-22T03:36:19;10.40;;;7.20;;
60610;SDS011;46439;51.164;13.572;2023-06-22T03:38:49;8.20;;;7.20;;
60610;SDS011;46439;51.164;13.572;2023-06-22T03:41:18;8.20;;;7.30;;
60610;SDS011;46439;51.164;13.572;2023-06-22T03:43:46;10.20;;;7.30;;
60610;SDS011;46439;51.164;13.572;2023-06-22T03:46:15;8.40;;;7.40;;
60610;SDS011;46439;51.164;13.572;2023-06-22T03:48:44;9.70;;;7.40;;
60610;SDS011;46439;51.164;13.572;2023-06-22T03:51:12;10.30;;;8.00;;
60610;SDS011;46439;51.164;13.572;2023-06-22T03:53:41;10.50;;;8.00;;
60610;SDS011;46439;51.164;13.572;2023-06-22T03:56:10;9.10;;;7.70;;
60610;SDS011;46439;51.164;13.572;2023-06-22T03:58:38;9.50;;;7.00;;
60610;SDS011;46439;51.164;13.572;2023-06-22T04:01:09;8.30;;;6.70;;
60610;SDS011;46439;51.164;13.572;2023-06-22T04:03:38;10.10;;;8.20;;
60610;SDS011;46439;51.164;13.572;2023-06-22T04:06:07;10.30;;;7.60;;
60610;SDS011;46439;51.164;13.572;2023-06-22T04:08:36;10.30;;;7.30;;
60610;SDS011;46439;51.164;13.572;2023-06-22T04:11:04;12.10;;;8.20;;
60610;SDS011;46439;51.164;13.572;2023-06-22T04:13:32;10.80;;;8.00;;
60610;SDS011;46439;51.164;13.572;2023-06-22T04:16:01;8.80;;;7.60;;
60610;SDS011;46439;51.164;13.572;2023-06-22T04:18:30;10.50;;;7.90;;
60610;SDS011;46439;51.164;13.572;2023-06-22T04:20:59;10.40;;;8.40;;
60610;SDS011;46439;51.164;13.572;2023-06-22T04:23:28;10.90;;;8.50;;
60610;SDS011;46439;51.164;13.572;2023-06-22T04:25:56;12.10;;;8.20;;
60610;SDS011;46439;51.164;13.572;2023-06-22T04:28:26;9.30;;;8.30;;
60610;SDS011;46439;51.164;13.572;2023-06-22T04:30:54;10.80;;;8.50;;
60610;SDS011;46439;51.164;13.572;2023-06-22T04:33:24;10.50;;;8.20;;
60610;SDS011;46439;51.164;13.572;2023-06-22T04:35:53;10.10;;;8.40;;
60610;SDS011;46439;51.164;13.572;2023-06-22T04:38:23;10.90;;;8.30;;
60610;SDS011;46439;51.164;13.572;2023-06-22T04:40:52;11.00;;;9.20;;
60610;SDS011;46439;51.164;13.572;2023-06-22T04:43:21;12.50;;;9.60;;
60610;SDS011;46439;51.164;13.572;2023-06-22T04:45:49;11.50;;;8.50;;
60610;SDS011;46439;51.164;13.572;2023-06-22T04:48:19;11.00;;;8.80;;
60610;SDS011;46439;51.164;13.572;2023-06-22T04:50:47;11.20;;;8.60;;
60610;SDS011;46439;51.164;13.572;2023-06-22T04:53:16;11.40;;;8.80;;
60610;SDS011;46439;51.164;13.572;2023-06-22T04:55:45;13.70;;;8.70;;
60610;SDS011;46439;51.164;13.572;2023-06-22T04:58:15;15.30;;;9.50;;
60610;SDS011;46439;51.164;13.572;2023-06-22T05:00:46;12.70;;;9.50;;
60610;SDS011;46439;51.164;13.572;2023-06-22T05:03:18;13.40;;;9.90;;
60610;SDS011;46439;51.164;13.572;2023-06-22T05:05:47;10.30;;;9.20;;
60610;SDS011;46439;51.164;13.572;2023-06-22T05:08:15;10.00;;;8.50;;
60610;SDS011;46439;51.164;13.572;2023-06-22T05:10:44;13.70;;;9.30;;
60610;SDS011;46439;51.164;13.572;2023-06-22T05:13:13;10.60;;;9.40;;
60610;SDS011;46439;51.164;13.572;2023-06-22T05:15:41;13.80;;;9.90;;
60610;SDS011;46439;51.164;13.572;2023-06-22T05:18:10;11.80;;;9.80;;
60610;SDS011;46439;51.164;13.572;2023-06-22T05:20:39;15.20;;;10.60;;
60610;SDS011;46439;51.164;13.572;2023-06-22T05:23:07;13.50;;;9.40;;
60610;SDS011;46439;51.164;13.572;2023-06-22T05:25:36;13.80;;;9.80;;
60610;SDS011;46439;51.164;13.572;2023-06-22T05:28:04;16.10;;;9.40;;
60610;SDS011;46439;51.164;13.572;2023-06-22T05:30:37;12.20;;;10.00;;
60610;SDS011;46439;51.164;13.572;2023-06-22T05:33:05;13.70;;;9.70;;
60610;SDS011;46439;51.164;13.572;2023-06-22T05:35:34;14.20;;;9.70;;
60610;SDS011;46439;51.164;13.572;2023-06-22T05:38:03;13.30;;;9.80;;
60610;SDS011;46439;51.164;13.572;2023-06-22T05:40:31;13.00;;;9.80;;
60610;SDS011;46439;51.164;13.572;2023-06-22T05:42:59;14.40;;;9.40;;
60610;SDS011;46439;51.164;13.572;2023-06-22T05:45:28;14.60;;;9.10;;
60610;SDS011;46439;51.164;13.572;2023-06-22T05:47:57;18.10;;;9.30;;
60610;SDS011;46439;51.164;13.572;2023-06-22T05:50:25;11.20;;;8.40;;
60610;SDS011;46439;51.164;13.572;2023-06-22T05:52:53;10.90;;;8.20;;
60610;SDS011;46439;51.164;13.572;2023-06-22T05:55:22;13.60;;;9.00;;
60610;SDS011;46439;51.164;13.572;2023-06-22T05:57:50;15.20;;;9.40;;
60610;SDS011;46439;51.164;13.572;2023-06-22T06:00:20;12.70;;;8.60;;
60610;SDS011;46439;51.164;13.572;2023-06-22T06:02:50;12.30;;;8.60;;
60610;SDS011;46439;51.164;13.572;2023-06-22T06:05:18;12.10;;;8.50;;
60610;SDS011;46439;51.164;13.572;2023-06-22T06:07:47;11.10;;;7.90;;
60610;SDS011;46439;51.164;13.572;2023-06-22T06:10:16;11.00;;;8.40;;
60610;SDS011;46439;51.164;13.572;2023-06-22T06:12:44;10.00;;;8.00;;
60610;SDS011;46439;51.164;13.572;2023-06-22T06:15:12;11.30;;;7.90;;
60610;SDS011;46439;51.164;13.572;2023-06-22T06:17:46;10.20;;;7.60;;
60610;SDS011;46439;51.164;13.572;2023-06-22T06:20:15;8.00;;;7.10;;
60610;SDS011;46439;51.164;13.572;2023-06-22T06:22:45;9.90;;;7.40;;
60610;SDS011;46439;51.164;13.572;2023-06-22T06:25:13;8.30;;;7.00;;
60610;SDS011;46439;51.164;13.572;2023-06-22T06:27:45;9.30;;;8.10;;
60610;SDS011;46439;51.164;13.572;2023-06-22T06:30:14;9.20;;;7.60;;
60610;SDS011;46439;51.164;13.572;2023-06-22T06:32:44;11.30;;;7.90;;
60610;SDS011;46439;51.164;13.572;2023-06-22T06:35:13;8.20;;;7.40;;
60610;SDS011;46439;51.164;13.572;2023-06-22T06:37:43;8.80;;;7.90;;
60610;SDS011;46439;51.164;13.572;2023-06-22T06:40:15;8.20;;;7.40;;
60610;SDS011;46439;51.164;13.572;2023-06-22T06:42:45;8.30;;;7.50;;
60610;SDS011;46439;51.164;13.572;2023-06-22T06:45:16;9.20;;;7.60;;
60610;SDS011;46439;51.164;13.572;2023-06-22T06:47:46;8.80;;;7.20;;
60610;SDS011;46439;51.164;13.572;2023-06-22T06:50:15;8.20;;;7.10;;
60610;SDS011;46439;51.164;13.572;2023-06-22T06:52:45;8.60;;;7.70;;
60610;SDS011;46439;51.164;13.572;2023-06-22T06:55:13;9.90;;;7.60;;
60610;SDS011;46439;51.164;13.572;2023-06-22T06:57:42;8.90;;;7.80;;
60610;SDS011;46439;51.164;13.572;2023-06-22T07:00:15;8.90;;;7.70;;
60610;SDS011;46439;51.164;13.572;2023-06-22T07:02:45;8.90;;;8.00;;
60610;SDS011;46439;51.164;13.572;2023-06-22T07:05:14;9.40;;;8.10;;
60610;SDS011;46439;51.164;13.572;2023-06-22T07:07:43;9.00;;;8.10;;
60610;SDS011;46439;51.164;13.572;2023-06-22T07:10:11;10.70;;;8.40;;
60610;SDS011;46439;51.164;13.572;2023-06-22T07:12:41;9.30;;;8.40;;
60610;SDS011;46439;51.164;13.572;2023-06-22T07:15:10;8.60;;;7.70;;
60610;SDS011;46439;51.164;13.572;2023-06-22T07:17:40;11.10;;;8.50;;
60610;SDS011;46439;51.164;13.572;2023-06-22T07:20:09;8.60;;;7.80;;
60610;SDS011;46439;51.164;13.572;2023-06-22T07:22:39;12.40;;;8.40;;
60610;SDS011;46439;51.164;13.572;2023-06-22T07:25:09;9.80;;;8.20;;
60610;SDS011;46439;51.164;13.572;2023-06-22T07:27:42;11.10;;;8.50;;
60610;SDS011;46439;51.164;13.572;2023-06-22T07:30:13;10.10;;;8.50;;
60610;SDS011;46439;51.164;13.572;2023-06-22T07:32:42;10.30;;;8.20;;
60610;SDS011;46439;51.164;13.572;2023-06-22T07:35:10;8.80;;;7.90;;
60610;SDS011;46439;51.164;13.572;2023-06-22T07:37:39;12.80;;;8.20;;
60610;SDS011;46439;51.164;13.572;2023-06-22T07:40:09;8.90;;;7.90;;
60610;SDS011;46439;51.164;13.572;2023-06-22T07:42:39;9.80;;;7.70;;
60610;SDS011;46439;51.164;13.572;2023-06-22T07:45:08;8.20;;;7.40;;
60610;SDS011;46439;51.164;13.572;2023-06-22T07:47:37;9.90;;;7.60;;
60610;SDS011;46439;51.164;13.572;2023-06-22T07:50:06;9.80;;;7.90;;
60610;SDS011;46439;51.164;13.572;2023-06-22T07:52:35;11.40;;;8.00;;
60610;SDS011;46439;51.164;13.572;2023-06-22T07:55:04;8.30;;;7.50;;
60610;SDS011;46439;51.164;13.572;2023-06-22T07:57:33;9.40;;;8.40;;
60610;SDS011;46439;51.164;13.572;2023-06-22T08:00:03;10.30;;;8.00;;
60610;SDS011;46439;51.164;13.572;2023-06-22T08:02:40;10.50;;;8.10;;
60610;SDS011;46439;51.164;13.572;2023-06-22T08:05:09;9.50;;;7.90;;
60610;SDS011;46439;51.164;13.572;2023-06-22T08:07:38;9.50;;;7.20;;
60610;SDS011;46439;51.164;13.572;2023-06-22T08:10:09;9.80;;;7.50;;
60610;SDS011;46439;51.164;13.572;2023-06-22T08:15:07;8.30;;;7.40;;
60610;SDS011;46439;51.164;13.572;2023-06-22T08:17:37;8.90;;;8.00;;
60610;SDS011;46439;51.164;13.572;2023-06-22T08:20:07;8.40;;;7.50;;
60610;SDS011;46439;51.164;13.572;2023-06-22T08:22:38;7.50;;;6.70;;
60610;SDS011;46439;51.164;13.572;2023-06-22T08:25:08;7.60;;;6.80;;
60610;SDS011;46439;51.164;13.572;2023-06-22T08:27:37;8.00;;;7.00;;
60610;SDS011;46439;51.164;13.572;2023-06-22T08:30:07;8.00;;;6.70;;
60610;SDS011;46439;51.164;13.572;2023-06-22T08:32:38;7.50;;;6.70;;
60610;SDS011;46439;51.164;13.572;2023-06-22T08:35:07;7.50;;;6.30;;
60610;SDS011;46439;51.164;13.572;2023-06-22T08:37:36;7.80;;;6.90;;
60610;SDS011;46439;51.164;13.572;2023-06-22T08:40:07;7.20;;;6.20;;
60610;SDS011;46439;51.164;13.572;2023-06-22T08:45:05;8.50;;;6.90;;
60610;SDS011;46439;51.164;13.572;2023-06-22T08:47:35;6.70;;;6.10;;
60610;SDS011;46439;51.164;13.572;2023-06-22T08:50:04;8.80;;;6.50;;
60610;SDS011;46439;51.164;13.572;2023-06-22T08:55:02;7.60;;;6.30;;
60610;SDS011;46439;51.164;13.572;2023-06-22T08:57:31;7.00;;;5.90;;
60610;SDS011;46439;51.164;13.572;2023-06-22T08:59:59;8.60;;;6.40;;
60610;SDS011;46439;51.164;13.572;2023-06-22T09:02:31;8.80;;;6.80;;
60610;SDS011;46439;51.164;13.572;2023-06-22T09:05:02;7.80;;;6.50;;
60610;SDS011;46439;51.164;13.572;2023-06-22T09:07:32;8.80;;;6.90;;
60610;SDS011;46439;51.164;13.572;2023-06-22T09:10:01;7.60;;;6.80;;
60610;SDS011;46439;51.164;13.572;2023-06-22T09:12:32;7.80;;;7.00;;
60610;SDS011;46439;51.164;13.572;2023-06-22T09:15:04;7.70;;;6.40;;
60610;SDS011;46439;51.164;13.572;2023-06-22T09:17:34;9.00;;;7.00;;
60610;SDS011;46439;51.164;13.572;2023-06-22T09:20:03;7.30;;;6.60;;
60610;SDS011;46439;51.164;13.572;2023-06-22T09:22:37;8.20;;;6.50;;
60610;SDS011;46439;51.164;13.572;2023-06-22T09:25:06;7.70;;;6.50;;
60610;SDS011;46439;51.164;13.572;2023-06-22T09:27:35;7.10;;;6.30;;
60610;SDS011;46439;51.164;13.572;2023-06-22T09:30:05;8.60;;;7.40;;
60610;SDS011;46439;51.164;13.572;2023-06-22T09:32:34;8.10;;;7.00;;
60610;SDS011;46439;51.164;13.572;2023-06-22T09:35:04;7.40;;;6.70;;
60610;SDS011;46439;51.164;13.572;2023-06-22T09:37:34;7.20;;;6.50;;
60610;SDS011;46439;51.164;13.572;2023-06-22T09:40:03;7.80;;;6.10;;
60610;SDS011;46439;51.164;13.572;2023-06-22T09:42:37;8.10;;;7.10;;
60610;SDS011;46439;51.164;13.572;2023-06-22T09:45:07;7.20;;;6.40;;
60610;SDS011;46439;51.164;13.572;2023-06-22T09:47:36;7.60;;;6.70;;
60610;SDS011;46439;51.164;13.572;2023-06-22T09:50:06;7.50;;;6.60;;
60610;SDS011;46439;51.164;13.572;2023-06-22T09:52:35;8.20;;;6.20;;
60610;SDS011;46439;51.164;13.572;2023-06-22T09:55:04;6.90;;;6.20;;
60610;SDS011;46439;51.164;13.572;2023-06-22T09:57:34;7.00;;;6.30;;
60610;SDS011;46439;51.164;13.572;2023-06-22T10:00:02;7.40;;;6.60;;
60610;SDS011;46439;51.164;13.572;2023-06-22T10:02:35;6.80;;;6.10;;
60610;SDS011;46439;51.164;13.572;2023-06-22T10:05:04;7.20;;;5.70;;
60610;SDS011;46439;51.164;13.572;2023-06-22T10:07:34;8.90;;;6.50;;
60610;SDS011;46439;51.164;13.572;2023-06-22T10:10:07;6.50;;;5.90;;
60610;SDS011;46439;51.164;13.572;2023-06-22T10:12:37;6.60;;;5.90;;
60610;SDS011;46439;51.164;13.572;2023-06-22T10:15:11;6.60;;;5.70;;
60610;SDS011;46439;51.164;13.572;2023-06-22T10:17:40;7.00;;;6.10;;
60610;SDS011;46439;51.164;13.572;2023-06-22T10:20:09;6.20;;;5.30;;
60610;SDS011;46439;51.164;13.572;2023-06-22T10:22:39;6.70;;;6.00;;
60610;SDS011;46439;51.164;13.572;2023-06-22T10:25:09;7.00;;;6.20;;
60610;SDS011;46439;51.164;13.572;2023-06-22T10:27:38;11.70;;;6.30;;
60610;SDS011;46439;51.164;13.572;2023-06-22T10:30:08;10.50;;;6.30;;
60610;SDS011;46439;51.164;13.572;2023-06-22T10:32:41;7.40;;;6.00;;
60610;SDS011;46439;51.164;13.572;2023-06-22T10:35:10;9.40;;;5.70;;
60610;SDS011;46439;51.164;13.572;2023-06-22T10:37:42;6.40;;;5.80;;
60610;SDS011;46439;51.164;13.572;2023-06-22T10:40:12;6.70;;;6.00;;
60610;SDS011;46439;51.164;13.572;2023-06-22T10:42:42;7.60;;;6.10;;
60610;SDS011;46439;51.164;13.572;2023-06-22T10:45:10;7.60;;;5.80;;
60610;SDS011;46439;51.164;13.572;2023-06-22T10:47:40;6.60;;;6.00;;
60610;SDS011;46439;51.164;13.572;2023-06-22T10:50:09;7.50;;;5.60;;
60610;SDS011;46439;51.164;13.572;2023-06-22T10:52:38;7.00;;;6.20;;
60610;SDS011;46439;51.164;13.572;2023-06-22T10:55:10;6.20;;;5.50;;
60610;SDS011;46439;51.164;13.572;2023-06-22T10:57:39;6.80;;;5.70;;
60610;SDS011;46439;51.164;13.572;2023-06-22T11:00:11;6.00;;;5.50;;
60610;SDS011;46439;51.164;13.572;2023-06-22T11:02:41;6.20;;;5.60;;
60610;SDS011;46439;51.164;13.572;2023-06-22T11:05:10;6.50;;;5.80;;
60610;SDS011;46439;51.164;13.572;2023-06-22T11:07:39;8.70;;;6.20;;
60610;SDS011;46439;51.164;13.572;2023-06-22T11:10:10;6.90;;;6.20;;
60610;SDS011;46439;51.164;13.572;2023-06-22T11:12:39;6.40;;;5.80;;
60610;SDS011;46439;51.164;13.572;2023-06-22T11:15:09;6.00;;;5.50;;
60610;SDS011;46439;51.164;13.572;2023-06-22T11:17:38;6.40;;;5.50;;
60610;SDS011;46439;51.164;13.572;2023-06-22T11:20:07;6.40;;;5.80;;
60610;SDS011;46439;51.164;13.572;2023-06-22T11:22:38;8.40;;;5.30;;
60610;SDS011;46439;51.164;13.572;2023-06-22T11:25:07;7.50;;;5.40;;
60610;SDS011;46439;51.164;13.572;2023-06-22T11:27:38;7.80;;;6.20;;
60610;SDS011;46439;51.164;13.572;2023-06-22T11:30:08;7.10;;;5.70;;
60610;SDS011;46439;51.164;13.572;2023-06-22T11:32:37;6.90;;;5.50;;
60610;SDS011;46439;51.164;13.572;2023-06-22T11:35:08;6.60;;;5.90;;
60610;SDS011;46439;51.164;13.572;2023-06-22T11:37:36;7.40;;;6.30;;
60610;SDS011;46439;51.164;13.572;2023-06-22T11:40:06;7.00;;;5.80;;
60610;SDS011;46439;51.164;13.572;2023-06-22T11:42:36;5.90;;;5.30;;
60610;SDS011;46439;51.164;13.572;2023-06-22T11:45:06;6.80;;;6.10;;
60610;SDS011;46439;51.164;13.572;2023-06-22T11:47:35;8.40;;;5.90;;
60610;SDS011;46439;51.164;13.572;2023-06-22T11:50:04;6.80;;;5.40;;
60610;SDS011;46439;51.164;13.572;2023-06-22T11:52:34;6.30;;;5.70;;
60610;SDS011;46439;51.164;13.572;2023-06-22T11:55:03;7.00;;;5.70;;
60610;SDS011;46439;51.164;13.572;2023-06-22T11:57:35;8.50;;;5.70;;
60610;SDS011;46439;51.164;13.572;2023-06-22T12:00:04;6.80;;;6.10;;
60610;SDS011;46439;51.164;13.572;2023-06-22T12:02:42;6.80;;;5.80;;
60610;SDS011;46439;51.164;13.572;2023-06-22T12:05:14;7.60;;;5.60;;
60610;SDS011;46439;51.164;13.572;2023-06-22T12:07:43;6.90;;;6.10;;
60610;SDS011;46439;51.164;13.572;2023-06-22T12:10:11;6.30;;;5.40;;
60610;SDS011;46439;51.164;13.572;2023-06-22T12:12:40;6.20;;;5.30;;
60610;SDS011;46439;51.164;13.572;2023-06-22T12:15:09;6.30;;;5.70;;
60610;SDS011;46439;51.164;13.572;2023-06-22T12:17:38;5.70;;;5.10;;
60610;SDS011;46439;51.164;13.572;2023-06-22T12:20:08;6.10;;;5.40;;
60610;SDS011;46439;51.164;13.572;2023-06-22T12:22:38;6.40;;;5.70;;
60610;SDS011;46439;51.164;13.572;2023-06-22T12:25:08;6.20;;;5.60;;
60610;SDS011;46439;51.164;13.572;2023-06-22T12:27:37;6.90;;;5.90;;
60610;SDS011;46439;51.164;13.572;2023-06-22T12:30:08;8.70;;;5.70;;
60610;SDS011;46439;51.164;13.572;2023-06-22T12:32:37;7.20;;;5.60;;
60610;SDS011;46439;51.164;13.572;2023-06-22T12:35:06;7.20;;;5.80;;
60610;SDS011;46439;51.164;13.572;2023-06-22T12:37:40;8.80;;;5.70;;
60610;SDS011;46439;51.164;13.572;2023-06-22T12:40:10;7.10;;;5.80;;
60610;SDS011;46439;51.164;13.572;2023-06-22T12:42:39;6.80;;;5.90;;
60610;SDS011;46439;51.164;13.572;2023-06-22T12:45:09;6.10;;;5.50;;
60610;SDS011;46439;51.164;13.572;2023-06-22T12:47:38;6.90;;;5.50;;
60610;SDS011;46439;51.164;13.572;2023-06-22T12:50:07;6.70;;;5.90;;
60610;SDS011;46439;51.164;13.572;2023-06-22T12:52:37;7.00;;;5.80;;
60610;SDS011;46439;51.164;13.572;2023-06-22T12:57:35;6.90;;;5.90;;
60610;SDS011;46439;51.164;13.572;2023-06-22T13:00:05;6.70;;;6.10;;
60610;SDS011;46439;51.164;13.572;2023-06-22T13:02:36;7.40;;;5.50;;
60610;SDS011;46439;51.164;13.572;2023-06-22T13:05:05;8.10;;;6.10;;
60610;SDS011;46439;51.164;13.572;2023-06-22T13:07:35;7.30;;;5.80;;
60610;SDS011;46439;51.164;13.572;2023-06-22T13:10:04;6.80;;;5.60;;
60610;SDS011;46439;51.164;13.572;2023-06-22T13:12:34;6.20;;;5.60;;
60610;SDS011;46439;51.164;13.572;2023-06-22T13:15:02;8.50;;;5.70;;
60610;SDS011;46439;51.164;13.572;2023-06-22T13:17:33;6.60;;;5.60;;
60610;SDS011;46439;51.164;13.572;2023-06-22T13:20:01;7.00;;;5.80;;
60610;SDS011;46439;51.164;13.572;2023-06-22T13:22:31;7.60;;;6.00;;
60610;SDS011;46439;51.164;13.572;2023-06-22T13:25:07;7.70;;;6.00;;
60610;SDS011;46439;51.164;13.572;2023-06-22T13:27:39;6.90;;;5.90;;
60610;SDS011;46439;51.164;13.572;2023-06-22T13:30:09;8.60;;;5.90;;
60610;SDS011;46439;51.164;13.572;2023-06-22T13:32:38;10.30;;;6.20;;
60610;SDS011;46439;51.164;13.572;2023-06-22T13:35:09;7.10;;;5.80;;
60610;SDS011;46439;51.164;13.572;2023-06-22T13:37:38;5.90;;;5.30;;
60610;SDS011;46439;51.164;13.572;2023-06-22T13:40:08;7.00;;;6.10;;
60610;SDS011;46439;51.164;13.572;2023-06-22T13:42:37;7.40;;;6.00;;
60610;SDS011;46439;51.164;13.572;2023-06-22T13:45:06;8.20;;;6.10;;
60610;SDS011;46439;51.164;13.572;2023-06-22T13:47:35;7.80;;;6.20;;
60610;SDS011;46439;51.164;13.572;2023-06-22T13:50:05;8.70;;;5.70;;
60610;SDS011;46439;51.164;13.572;2023-06-22T13:52:34;6.70;;;5.70;;
60610;SDS011;46439;51.164;13.572;2023-06-22T13:55:03;6.80;;;5.30;;
60610;SDS011;46439;51.164;13.572;2023-06-22T13:57:36;9.80;;;6.00;;
60610;SDS011;46439;51.164;13.572;2023-06-22T14:00:05;6.20;;;5.60;;
60610;SDS011;46439;51.164;13.572;2023-06-22T14:02:35;7.50;;;5.80;;
60610;SDS011;46439;51.164;13.572;2023-06-22T14:05:04;6.40;;;5.70;;
60610;SDS011;46439;51.164;13.572;2023-06-22T14:07:33;6.60;;;5.90;;
60610;SDS011;46439;51.164;13.572;2023-06-22T14:10:02;7.00;;;6.10;;
60610;SDS011;46439;51.164;13.572;2023-06-22T14:12:32;7.50;;;5.90;;
60610;SDS011;46439;51.164;13.572;2023-06-22T14:15:01;6.00;;;5.40;;
60610;SDS011;46439;51.164;13.572;2023-06-22T14:17:30;9.30;;;5.70;;
60610;SDS011;46439;51.164;13.572;2023-06-22T14:19:59;6.50;;;5.60;;
60610;SDS011;46439;51.164;13.572;2023-06-22T14:22:27;6.70;;;5.30;;
60610;SDS011;46439;51.164;13.572;2023-06-22T14:24:56;6.60;;;5.70;;
60610;SDS011;46439;51.164;13.572;2023-06-22T14:27:25;8.50;;;6.00;;
60610;SDS011;46439;51.164;13.572;2023-06-22T14:29:54;6.60;;;5.50;;
60610;SDS011;46439;51.164;13.572;2023-06-22T14:32:22;7.60;;;5.70;;
60610;SDS011;46439;51.164;13.572;2023-06-22T14:34:51;6.70;;;5.80;;
60610;SDS011;46439;51.164;13.572;2023-06-22T14:37:20;6.20;;;5.60;;
60610;SDS011;46439;51.164;13.572;2023-06-22T14:39:48;6.90;;;5.50;;
60610;SDS011;46439;51.164;13.572;2023-06-22T14:42:17;9.10;;;6.40;;
60610;SDS011;46439;51.164;13.572;2023-06-22T14:44:45;5.90;;;5.20;;
60610;SDS011;46439;51.164;13.572;2023-06-22T14:47:14;7.00;;;5.70;;
60610;SDS011;46439;51.164;13.572;2023-06-22T14:52:12;5.70;;;5.10;;
60610;SDS011;46439;51.164;13.572;2023-06-22T14:54:40;7.90;;;5.90;;
60610;SDS011;46439;51.164;13.572;2023-06-22T14:57:09;5.90;;;5.30;;
60610;SDS011;46439;51.164;13.572;2023-06-22T14:59:37;6.30;;;5.70;;